createdAt,value
2022-08-22T00:02:56.593Z,97.70
2022-08-22T00:07:00.772Z,99.90
2022-08-22T00:14:01.680Z,99.90
2022-08-22T00:21:06.484Z,99.90
2022-08-22T00:27:56.796Z,99.90
2022-08-22T00:35:01.306Z,99.90
2022-08-22T00:42:30.300Z,99.90
2022-08-22T00:49:41.605Z,99.90
2022-08-22T00:56:47.787Z,99.90
2022-08-22T01:04:11.554Z,99.90
2022-08-22T01:11:11.966Z,99.90
2022-08-22T01:18:09.149Z,99.90
2022-08-22T01:25:29.094Z,99.90
2022-08-22T01:32:39.494Z,99.90
2022-08-22T01:39:51.781Z,99.90
2022-08-22T01:46:57.265Z,99.90
2022-08-22T01:54:14.402Z,99.90
2022-08-22T02:01:08.894Z,99.90
2022-08-22T02:08:02.693Z,99.90
2022-08-22T02:15:06.271Z,99.90
2022-08-22T02:22:06.611Z,99.90
2022-08-22T02:29:07.912Z,99.90
2022-08-22T02:36:16.313Z,99.90
2022-08-22T02:43:18.351Z,99.90
2022-08-22T02:50:05.979Z,99.90
2022-08-22T02:57:11.421Z,99.90
2022-08-22T03:04:15.637Z,99.90
2022-08-22T03:11:23.782Z,99.90
2022-08-22T03:18:27.389Z,99.90
2022-08-22T03:25:29.956Z,99.90
2022-08-22T03:32:12.439Z,99.90
2022-08-22T03:39:17.743Z,99.90
2022-08-22T03:46:00.078Z,99.90
2022-08-22T03:53:15.535Z,99.90
2022-08-22T04:00:11.811Z,99.90
2022-08-22T04:07:28.170Z,99.90
2022-08-22T04:14:39.683Z,99.90
2022-08-22T04:21:40.904Z,99.90
2022-08-22T04:28:34.123Z,99.90
2022-08-22T04:35:31.923Z,99.90
2022-08-22T04:42:32.620Z,99.90
2022-08-22T04:49:31.331Z,99.90
2022-08-22T04:56:49.158Z,99.90
2022-08-22T05:03:35.959Z,99.90
2022-08-22T05:10:23.491Z,99.90
2022-08-22T05:17:09.504Z,99.90
2022-08-22T05:24:01.376Z,99.90
2022-08-22T05:30:47.580Z,99.90
2022-08-22T05:37:43.473Z,99.90
2022-08-22T05:44:30.789Z,99.90
2022-08-22T05:51:23.337Z,99.90
2022-08-22T05:58:30.162Z,99.90
2022-08-22T06:05:14.215Z,99.90
2022-08-22T06:12:02.661Z,95.50
2022-08-22T06:18:45.873Z,92.00
2022-08-22T06:25:33.455Z,90.10
2022-08-22T06:32:59.564Z,88.30
2022-08-22T06:39:49.142Z,85.20
2022-08-22T06:46:36.304Z,82.60
2022-08-22T06:53:36.014Z,81.50
2022-08-22T07:00:19.961Z,81.30
2022-08-22T07:07:02.700Z,81.80
2022-08-22T07:13:58.542Z,80.60
2022-08-22T07:20:45.116Z,79.20
2022-08-22T07:27:53.722Z,78.00
2022-08-22T07:34:44.900Z,75.40
2022-08-22T07:41:59.972Z,75.20
2022-08-22T07:49:08.294Z,73.20
2022-08-22T07:55:53.866Z,71.00
2022-08-22T08:02:37.186Z,70.50
2022-08-22T08:09:20.544Z,68.60
2022-08-22T08:16:06.839Z,67.60
2022-08-22T08:22:51.039Z,67.90
2022-08-22T08:29:34.007Z,65.70
2022-08-22T08:36:23.401Z,65.50
2022-08-22T08:43:29.710Z,65.00
2022-08-22T08:50:17.899Z,64.10
2022-08-22T08:57:10.316Z,64.00
2022-08-22T09:11:46.371Z,62.00
2022-08-22T09:18:59.183Z,62.00
2022-08-22T09:25:49.919Z,61.70
2022-08-22T09:32:52.086Z,61.70
2022-08-22T09:40:06.229Z,62.00
2022-08-22T09:47:11.075Z,61.30
2022-08-22T09:54:31.725Z,62.30
2022-08-22T10:01:15.260Z,62.70
2022-08-22T10:08:07.175Z,62.60
2022-08-22T10:15:04.076Z,62.80
2022-08-22T10:22:15.915Z,62.90
2022-08-22T10:29:39.204Z,65.60
2022-08-22T10:36:47.875Z,67.30
2022-08-22T10:44:00.637Z,65.20
2022-08-22T10:51:01.022Z,63.80
2022-08-22T10:57:52.520Z,64.60
2022-08-22T11:04:59.707Z,66.10
2022-08-22T11:12:12.627Z,66.60
2022-08-22T11:19:14.614Z,66.40
2022-08-22T11:26:30.026Z,66.60
2022-08-22T11:33:46.460Z,66.50
2022-08-22T11:40:36.479Z,66.80
2022-08-22T11:47:26.488Z,65.40
2022-08-22T11:54:48.475Z,66.10
2022-08-22T12:01:52.693Z,66.80
2022-08-22T12:08:40.699Z,66.90
2022-08-22T12:15:53.932Z,67.00
2022-08-22T12:23:01.560Z,66.70
2022-08-22T12:29:59.730Z,66.50
2022-08-22T12:36:57.556Z,66.20
2022-08-22T12:43:45.306Z,65.50
2022-08-22T12:50:47.002Z,64.50
2022-08-22T12:57:54.134Z,64.30
2022-08-22T13:04:46.321Z,64.00
2022-08-22T13:11:37.222Z,63.70
2022-08-22T13:18:31.108Z,63.60
2022-08-22T13:25:26.878Z,63.40
2022-08-22T13:32:23.405Z,63.60
2022-08-22T13:39:33.555Z,63.50
2022-08-22T13:46:28.171Z,64.20
2022-08-22T13:53:29.228Z,64.60
2022-08-22T14:00:29.243Z,65.00
2022-08-22T14:07:11.803Z,65.20
2022-08-22T14:13:59.310Z,66.70
2022-08-22T14:20:43.759Z,64.90
2022-08-22T14:27:59.248Z,65.20
2022-08-22T14:34:45.443Z,64.60
2022-08-22T14:41:55.698Z,64.80
2022-08-22T14:49:13.421Z,64.90
2022-08-22T14:56:15.377Z,64.80
2022-08-22T15:03:24.869Z,64.60
2022-08-22T15:10:20.744Z,64.50
2022-08-22T15:17:07.689Z,64.50
2022-08-22T15:23:53.988Z,64.00
2022-08-22T15:30:44.412Z,64.20
2022-08-22T15:37:32.623Z,64.30
2022-08-22T15:44:32.696Z,64.50
2022-08-22T15:51:35.693Z,64.60
2022-08-22T15:58:24.783Z,64.90
2022-08-22T16:05:07.157Z,65.00
2022-08-22T16:11:54.691Z,65.40
2022-08-22T16:18:40.287Z,65.40
2022-08-22T16:25:58.056Z,65.30
2022-08-22T16:32:52.051Z,65.60
2022-08-22T16:39:37.448Z,65.50
2022-08-22T16:46:33.329Z,65.60
2022-08-22T16:53:21.800Z,65.10
2022-08-22T17:00:46.210Z,65.30
2022-08-22T17:08:17.953Z,65.60
2022-08-22T17:15:46.227Z,65.30
2022-08-22T17:22:49.364Z,65.10
2022-08-22T17:29:49.934Z,65.10
2022-08-22T17:36:47.422Z,65.50
2022-08-22T17:43:48.405Z,65.80
2022-08-22T17:50:40.604Z,65.80
2022-08-22T17:57:46.018Z,66.10
2022-08-22T18:04:34.286Z,66.80
2022-08-22T18:11:40.223Z,68.30
2022-08-22T18:18:33.537Z,67.20
2022-08-22T18:25:18.956Z,68.40
2022-08-22T18:32:20.961Z,69.50
2022-08-22T18:39:29.133Z,71.10
2022-08-22T18:46:42.832Z,73.00
2022-08-22T18:53:44.207Z,72.80
2022-08-22T19:00:46.209Z,73.30
2022-08-22T19:07:56.280Z,74.40
2022-08-22T19:15:27.373Z,73.70
2022-08-22T19:22:19.297Z,78.00
2022-08-22T19:29:17.190Z,82.20
2022-08-22T19:36:12.636Z,83.10
2022-08-22T19:42:55.184Z,84.00
2022-08-22T19:50:06.371Z,85.50
2022-08-22T19:57:15.720Z,86.20
2022-08-22T20:04:02.086Z,87.00
2022-08-22T20:11:16.629Z,89.50
2022-08-22T20:25:42.085Z,91.60
2022-08-22T20:32:23.057Z,92.10
2022-08-22T20:39:14.176Z,93.20
2022-08-22T20:46:24.014Z,92.80
2022-08-22T20:53:19.893Z,92.80
2022-08-22T21:00:11.529Z,95.20
2022-08-22T21:07:00.676Z,94.80
2022-08-22T21:13:43.141Z,95.80
2022-08-22T21:20:31.341Z,95.60
2022-08-22T21:27:22.799Z,95.70
2022-08-22T21:34:05.759Z,96.00
2022-08-22T21:40:48.197Z,96.80
2022-08-22T21:47:39.255Z,97.10
2022-08-22T21:54:44.739Z,97.00
2022-08-22T22:01:31.311Z,97.10
2022-08-22T22:08:13.916Z,97.60
2022-08-22T22:14:57.147Z,98.20
2022-08-22T22:21:39.649Z,99.60
2022-08-22T22:28:33.269Z,99.90
2022-08-22T22:35:16.519Z,99.90
2022-08-22T22:41:58.940Z,99.90
2022-08-22T22:48:47.309Z,99.90
2022-08-22T23:02:34.212Z,99.40
2022-08-22T23:09:16.581Z,98.80
2022-08-22T23:16:05.049Z,99.90
2022-08-22T23:29:31.272Z,99.90
2022-08-22T23:36:19.161Z,99.90
2022-08-22T23:43:01.507Z,99.90
2022-08-22T23:49:44.210Z,99.90
2022-08-22T23:56:48.896Z,99.90
